Terminal Aerodrome Forecast
Issued by NWS

Current Version | Previous Version | Text Only | Print | Product List | Glossary Off
Versions: 1 2 3 4 5 6 7 8 9 10 11 12 13 14 15 16 17 18 19 20 21 22 23 24

000
FTUS41 KILN 211154 AAA
TAFLUK
TAF AMD
KLUK 211154Z 2112/2212 23005KT P6SM BKN060 BKN080
      TEMPO 2112/2114 33015G30KT 2SM +TSRA BR OVC015CB
     FM211500 23005KT P6SM BKN045
     FM212200 26006KT P6SM VCTS BKN045CB
     FM220400 00000KT P6SM BKN045=

USA.gov is the U.S. government's official web portal to all federal, state and local government web resources and services.